createdAt,value
2022-09-16T00:01:50.103Z,12.65
2022-09-16T00:04:18.333Z,12.25
2022-09-16T00:06:46.179Z,12.15
2022-09-16T00:09:13.916Z,13.10
2022-09-16T00:11:41.641Z,12.77
2022-09-16T00:14:09.297Z,12.38
2022-09-16T00:16:37.057Z,11.85
2022-09-16T00:19:06.144Z,12.65
2022-09-16T00:21:33.867Z,12.15
2022-09-16T00:24:01.635Z,11.88
2022-09-16T00:26:29.898Z,11.93
2022-09-16T00:28:57.760Z,12.60
2022-09-16T00:31:25.495Z,12.27
2022-09-16T00:33:53.208Z,11.93
2022-09-16T00:36:22.285Z,12.40
2022-09-16T00:38:52.161Z,12.30
2022-09-16T00:41:21.733Z,12.40
2022-09-16T00:43:52.372Z,11.90
2022-09-16T00:46:22.791Z,11.95
2022-09-16T00:48:50.955Z,12.38
2022-09-16T00:51:21.029Z,13.05
2022-09-16T00:53:56.911Z,13.07
2022-09-16T00:56:27.058Z,11.80
2022-09-16T00:59:02.156Z,11.70
2022-09-16T01:01:30.948Z,12.93
2022-09-16T01:04:01.522Z,12.73
2022-09-16T01:06:29.495Z,12.77
2022-09-16T01:08:58.741Z,12.77
2022-09-16T01:11:26.841Z,13.65
2022-09-16T01:13:54.950Z,11.75
2022-09-16T01:16:26.654Z,12.85
2022-09-16T01:18:59.697Z,12.05
2022-09-16T01:21:35.943Z,12.57
2022-09-16T01:24:30.091Z,12.73
2022-09-16T01:27:36.489Z,13.07
2022-09-16T01:30:21.455Z,12.23
2022-09-16T01:33:04.853Z,12.20
2022-09-16T01:35:51.577Z,12.38
2022-09-16T01:38:27.895Z,12.07
2022-09-16T01:40:59.409Z,13.43
2022-09-16T01:43:32.422Z,12.48
2022-09-16T01:46:04.294Z,12.52
2022-09-16T01:48:36.220Z,12.70
2022-09-16T01:51:08.473Z,11.90
2022-09-16T01:56:07.378Z,12.20
2022-09-16T01:58:40.269Z,13.40
2022-09-16T02:01:10.869Z,12.52
2022-09-16T02:03:42.155Z,12.65
2022-09-16T02:06:11.206Z,13.27
2022-09-16T02:08:43.384Z,13.32
2022-09-16T02:13:40.931Z,12.93
2022-09-16T02:16:12.707Z,12.85
2022-09-16T02:18:43.183Z,13.85
2022-09-16T02:21:14.592Z,13.73
2022-09-16T02:23:44.615Z,13.52
2022-09-16T02:26:14.747Z,13.57
2022-09-16T02:28:43.850Z,12.88
2022-09-16T02:31:13.527Z,13.70
2022-09-16T02:33:46.272Z,14.35
2022-09-16T02:36:15.592Z,13.52
2022-09-16T02:38:45.646Z,13.52
2022-09-16T02:41:14.954Z,13.82
2022-09-16T02:43:42.915Z,13.95
2022-09-16T02:46:13.774Z,13.70
2022-09-16T02:48:50.143Z,14.73
2022-09-16T02:51:27.366Z,14.32
2022-09-16T02:53:58.183Z,13.68
2022-09-16T02:56:30.881Z,13.25
2022-09-16T02:58:58.811Z,12.63
2022-09-16T03:01:27.273Z,13.20
2022-09-16T03:03:57.167Z,14.52
2022-09-16T03:06:49.570Z,14.57
2022-09-16T03:09:19.098Z,13.55
2022-09-16T03:12:23.970Z,14.30
2022-09-16T03:15:14.659Z,15.18
2022-09-16T03:17:52.209Z,14.75
2022-09-16T03:20:24.101Z,13.43
2022-09-16T03:22:58.181Z,13.77
2022-09-16T03:25:35.232Z,14.30
2022-09-16T03:28:07.886Z,13.95
2022-09-16T03:30:39.791Z,14.57
2022-09-16T03:33:11.623Z,13.77
2022-09-16T03:35:43.717Z,14.13
2022-09-16T03:40:41.596Z,13.38
2022-09-16T03:43:13.082Z,13.88
2022-09-16T03:45:42.703Z,14.15
2022-09-16T03:48:10.877Z,14.70
2022-09-16T03:50:38.752Z,14.60
2022-09-16T03:53:06.369Z,13.95
2022-09-16T03:55:35.358Z,13.68
2022-09-16T03:58:03.162Z,14.45
2022-09-16T04:00:30.969Z,15.85
2022-09-16T04:03:00.215Z,14.27
2022-09-16T04:05:28.351Z,14.65
2022-09-16T04:07:56.266Z,15.13
2022-09-16T04:10:24.105Z,15.10
2022-09-16T04:12:57.883Z,15.30
2022-09-16T04:15:25.755Z,14.98
2022-09-16T04:17:53.658Z,15.60
2022-09-16T04:20:21.368Z,14.55
2022-09-16T04:22:49.364Z,14.32
2022-09-16T04:25:17.115Z,14.45
2022-09-16T04:27:44.806Z,16.52
2022-09-16T04:30:24.468Z,14.23
2022-09-16T04:32:54.496Z,17.00
2022-09-16T04:35:22.360Z,17.98
2022-09-16T04:37:50.339Z,16.42
2022-09-16T04:40:18.208Z,16.23
2022-09-16T04:42:50.309Z,16.45
2022-09-16T04:45:19.667Z,16.05
2022-09-16T04:47:47.521Z,15.30
2022-09-16T04:50:15.401Z,16.50
2022-09-16T04:52:43.161Z,15.38
2022-09-16T04:55:10.872Z,15.80
2022-09-16T04:57:38.610Z,14.90
2022-09-16T05:00:07.336Z,15.98
2022-09-16T05:02:36.379Z,15.32
2022-09-16T05:05:04.245Z,14.45
2022-09-16T05:07:31.987Z,16.15
2022-09-16T05:09:59.733Z,16.02
2022-09-16T05:12:27.503Z,15.88
2022-09-16T05:14:55.281Z,15.40
2022-09-16T05:17:46.527Z,16.20
2022-09-16T05:20:12.308Z,14.60
2022-09-16T05:22:40.081Z,15.75
2022-09-16T05:25:08.460Z,15.32
2022-09-16T05:27:36.229Z,15.23
2022-09-16T05:30:03.998Z,15.73
2022-09-16T05:32:31.657Z,15.25
2022-09-16T05:34:59.412Z,16.40
2022-09-16T05:37:28.494Z,16.38
2022-09-16T05:39:57.160Z,15.57
2022-09-16T05:42:25.126Z,15.05
2022-09-16T05:44:52.897Z,16.48
2022-09-16T05:47:20.602Z,16.55
2022-09-16T05:49:48.298Z,15.10
2022-09-16T05:52:16.015Z,16.77
2022-09-16T05:54:45.284Z,15.60
2022-09-16T05:57:14.503Z,16.98
2022-09-16T05:59:42.304Z,15.45
2022-09-16T06:02:12.359Z,16.65
2022-09-16T06:04:40.071Z,17.48
2022-09-16T06:07:07.934Z,16.05
2022-09-16T06:09:35.683Z,17.38
2022-09-16T06:12:05.206Z,16.40
2022-09-16T06:14:32.974Z,16.60
2022-09-16T06:17:00.784Z,17.25
2022-09-16T06:19:28.532Z,17.48
2022-09-16T06:21:56.259Z,15.80
2022-09-16T06:24:24.242Z,15.45
2022-09-16T06:26:51.953Z,15.57
2022-09-16T06:29:21.100Z,16.67
2022-09-16T06:31:48.834Z,15.65
2022-09-16T06:34:18.674Z,15.38
2022-09-16T06:36:46.938Z,15.82
2022-09-16T06:39:16.558Z,15.65
2022-09-16T06:41:44.744Z,16.40
2022-09-16T06:44:12.623Z,16.10
2022-09-16T06:46:41.829Z,17.13
2022-09-16T06:49:11.107Z,16.30
2022-09-16T06:51:39.088Z,15.70
2022-09-16T06:54:09.127Z,19.20
2022-09-16T06:56:39.370Z,16.77
2022-09-16T06:59:07.961Z,17.77
2022-09-16T07:01:36.568Z,17.15
2022-09-16T07:04:07.482Z,16.40
2022-09-16T07:07:08.797Z,16.58
2022-09-16T07:09:24.531Z,16.27
2022-09-16T07:11:52.390Z,17.83
2022-09-16T07:14:20.233Z,17.23
2022-09-16T07:16:48.049Z,17.55
2022-09-16T07:19:17.407Z,16.38
2022-09-16T07:21:45.060Z,16.17
2022-09-16T07:24:14.303Z,17.15
2022-09-16T07:26:43.034Z,16.77
2022-09-16T07:29:12.867Z,16.48
2022-09-16T07:31:40.901Z,17.13
2022-09-16T07:34:10.838Z,16.63
2022-09-16T07:36:43.215Z,16.40
2022-09-16T07:39:11.658Z,16.02
2022-09-16T07:41:40.823Z,16.67
2022-09-16T07:44:09.880Z,17.05
2022-09-16T07:46:38.193Z,15.30
2022-09-16T07:49:08.038Z,17.13
2022-09-16T07:51:36.043Z,15.50
2022-09-16T07:54:11.960Z,17.48
2022-09-16T07:56:40.788Z,16.70
2022-09-16T07:59:14.304Z,23.25
2022-09-16T08:01:45.272Z,25.33
2022-09-16T08:04:13.761Z,23.95
2022-09-16T08:06:41.643Z,20.10
2022-09-16T08:09:36.795Z,28.52
2022-09-16T08:11:58.853Z,22.33
2022-09-16T08:14:27.067Z,17.42
2022-09-16T08:16:54.866Z,17.20
2022-09-16T08:19:23.378Z,16.80
2022-09-16T08:21:51.277Z,15.32
2022-09-16T08:24:20.420Z,14.50
2022-09-16T08:26:48.183Z,15.48
2022-09-16T08:29:16.428Z,15.70
2022-09-16T08:31:44.498Z,15.90
2022-09-16T08:34:12.267Z,17.00
2022-09-16T08:36:40.237Z,16.27
2022-09-16T08:39:07.972Z,16.20
2022-09-16T08:41:51.669Z,15.90
2022-09-16T08:44:28.693Z,16.00
2022-09-16T08:46:58.936Z,15.88
2022-09-16T08:49:33.709Z,14.68
2022-09-16T08:52:04.800Z,16.50
2022-09-16T08:54:35.426Z,16.63
2022-09-16T08:57:06.294Z,16.15
2022-09-16T08:59:37.146Z,16.95
2022-09-16T09:02:21.072Z,17.35
2022-09-16T09:04:49.471Z,17.17
2022-09-16T09:07:24.915Z,15.70
2022-09-16T09:10:00.621Z,16.67
2022-09-16T09:12:37.218Z,16.65
2022-09-16T09:15:14.298Z,15.65
2022-09-16T09:17:55.175Z,18.30
2022-09-16T09:20:34.836Z,18.10
2022-09-16T09:23:10.850Z,15.65
2022-09-16T09:25:43.367Z,16.25
2022-09-16T09:28:24.596Z,16.23
2022-09-16T09:30:58.383Z,17.77
2022-09-16T09:33:46.165Z,15.73
2022-09-16T09:36:29.839Z,16.08
2022-09-16T09:39:11.136Z,15.52
2022-09-16T09:41:41.476Z,16.15
2022-09-16T09:44:33.750Z,16.40
2022-09-16T09:47:04.215Z,16.02
2022-09-16T09:49:35.212Z,16.98
2022-09-16T09:52:09.294Z,15.10
2022-09-16T09:54:37.982Z,15.70
2022-09-16T09:57:09.790Z,15.68
2022-09-16T09:59:46.626Z,16.08
2022-09-16T10:02:17.053Z,16.17
2022-09-16T10:04:45.483Z,17.40
2022-09-16T10:07:15.544Z,15.35
2022-09-16T10:09:50.884Z,16.30
2022-09-16T10:12:29.060Z,15.93
2022-09-16T10:15:00.575Z,15.82
2022-09-16T10:17:31.997Z,15.27
2022-09-16T10:20:01.622Z,15.38
2022-09-16T10:22:30.737Z,16.08
2022-09-16T10:25:00.529Z,16.40
2022-09-16T10:27:30.282Z,16.40
2022-09-16T10:30:08.086Z,15.88
2022-09-16T10:32:46.859Z,15.23
2022-09-16T10:35:19.095Z,15.57
2022-09-16T10:40:18.563Z,14.80
2022-09-16T10:42:48.537Z,15.43
2022-09-16T10:45:24.013Z,14.88
2022-09-16T10:47:55.351Z,15.68
2022-09-16T10:50:23.111Z,14.80
2022-09-16T10:52:51.319Z,15.25
2022-09-16T10:55:28.807Z,15.23
2022-09-16T10:58:08.343Z,14.23
2022-09-16T11:00:45.848Z,15.63
2022-09-16T11:03:37.778Z,14.65
2022-09-16T11:06:17.813Z,14.82
2022-09-16T11:08:57.049Z,14.77
2022-09-16T11:11:43.907Z,15.25
2022-09-16T11:14:19.283Z,14.70
2022-09-16T11:17:01.102Z,15.40
2022-09-16T11:19:35.471Z,14.52
2022-09-16T11:22:14.115Z,15.15
2022-09-16T11:25:10.196Z,14.98
2022-09-16T11:27:46.013Z,15.85
2022-09-16T11:30:15.474Z,17.02
2022-09-16T11:33:20.409Z,14.85
2022-09-16T11:36:06.054Z,14.38
2022-09-16T11:38:43.740Z,12.85
2022-09-16T11:41:17.903Z,13.32
2022-09-16T11:44:04.342Z,12.80
2022-09-16T11:46:36.798Z,12.88
2022-09-16T11:49:20.217Z,13.07
2022-09-16T11:51:58.692Z,12.60
2022-09-16T11:54:38.237Z,13.40
2022-09-16T11:57:13.179Z,12.60
2022-09-16T11:59:46.999Z,11.82
2022-09-16T12:02:19.147Z,13.88
2022-09-16T12:09:58.060Z,13.48
2022-09-16T12:12:32.897Z,12.60
2022-09-16T12:15:05.871Z,12.95
2022-09-16T12:17:35.442Z,12.80
2022-09-16T12:20:08.759Z,12.90
2022-09-16T12:22:43.593Z,13.13
2022-09-16T12:25:14.952Z,12.52
2022-09-16T12:27:46.006Z,11.57
2022-09-16T12:30:18.218Z,11.52
2022-09-16T12:35:26.084Z,11.15
2022-09-16T12:37:59.261Z,11.45
2022-09-16T12:40:29.058Z,12.35
2022-09-16T12:43:19.067Z,11.35
2022-09-16T12:46:07.891Z,11.75
2022-09-16T12:48:57.875Z,11.68
2022-09-16T12:51:38.126Z,11.00
2022-09-16T12:54:32.108Z,11.40
2022-09-16T12:57:21.205Z,11.13
2022-09-16T13:00:00.318Z,11.80
2022-09-16T13:02:31.814Z,11.77
2022-09-16T13:05:02.419Z,11.05
2022-09-16T13:07:34.798Z,10.73
2022-09-16T13:10:05.138Z,11.02
2022-09-16T13:12:44.395Z,10.32
2022-09-16T13:15:27.153Z,10.48
2022-09-16T13:17:55.572Z,11.52
2022-09-16T13:20:28.473Z,10.75
2022-09-16T13:23:05.269Z,11.30
2022-09-16T13:25:35.845Z,11.13
2022-09-16T13:28:05.400Z,11.18
2022-09-16T13:30:35.897Z,11.88
2022-09-16T13:33:27.965Z,10.68
2022-09-16T13:36:29.769Z,11.45
2022-09-16T13:39:00.320Z,11.27
2022-09-16T13:41:34.162Z,10.55
2022-09-16T13:44:03.000Z,10.70
2022-09-16T13:46:34.719Z,10.98
2022-09-16T13:49:14.024Z,10.43
2022-09-16T13:51:45.120Z,10.65
2022-09-16T13:54:30.184Z,11.23
2022-09-16T13:57:18.493Z,10.82
2022-09-16T13:59:59.269Z,10.80
2022-09-16T14:02:36.494Z,11.32
2022-09-16T14:05:24.466Z,12.00
2022-09-16T14:15:17.280Z,11.57
2022-09-16T14:17:51.405Z,11.23
2022-09-16T14:20:22.741Z,10.88
2022-09-16T14:23:01.848Z,10.68
2022-09-16T14:25:32.800Z,11.60
2022-09-16T14:28:21.804Z,11.77
2022-09-16T14:30:53.753Z,12.40
2022-09-16T14:33:27.435Z,11.63
2022-09-16T14:35:57.614Z,11.27
2022-09-16T14:38:44.977Z,12.20
2022-09-16T14:41:22.906Z,12.63
2022-09-16T14:43:54.340Z,11.65
2022-09-16T14:46:22.322Z,12.40
2022-09-16T14:48:51.924Z,12.23
2022-09-16T14:52:00.341Z,12.15
2022-09-16T15:10:53.017Z,11.43
2022-09-16T15:13:26.903Z,11.70
2022-09-16T15:15:57.386Z,12.25
2022-09-16T15:18:29.719Z,13.48
2022-09-16T15:21:07.886Z,12.02
2022-09-16T15:23:37.495Z,11.57
2022-09-16T15:26:21.981Z,11.32
2022-09-16T15:28:57.767Z,12.00
2022-09-16T15:31:36.770Z,11.90
2022-09-16T15:34:07.905Z,11.23
2022-09-16T15:36:41.195Z,11.40
2022-09-16T15:39:24.324Z,11.60
2022-09-16T15:42:10.830Z,11.95
2022-09-16T15:44:40.845Z,12.68
2022-09-16T15:47:25.706Z,12.43
2022-09-16T15:49:57.087Z,12.98
2022-09-16T15:53:30.760Z,12.43
2022-09-16T15:56:04.570Z,13.57
2022-09-16T15:58:44.309Z,13.27
2022-09-16T16:01:16.101Z,12.95
2022-09-16T16:03:54.188Z,12.70
2022-09-16T16:06:47.236Z,12.02
2022-09-16T16:09:36.994Z,12.07
2022-09-16T16:12:10.581Z,12.90
2022-09-16T16:14:41.663Z,12.70
2022-09-16T16:17:13.519Z,13.30
2022-09-16T16:19:42.311Z,12.23
2022-09-16T16:22:10.096Z,12.93
2022-09-16T16:24:39.903Z,13.35
2022-09-16T16:27:08.535Z,12.70
2022-09-16T16:29:36.191Z,12.02
2022-09-16T16:32:07.569Z,12.68
2022-09-16T16:34:36.644Z,12.90
2022-09-16T16:37:05.113Z,12.90
2022-09-16T16:39:32.933Z,12.90
2022-09-16T16:42:00.637Z,12.95
2022-09-16T16:44:28.338Z,12.15
2022-09-16T16:46:56.895Z,12.38
2022-09-16T16:49:25.945Z,12.45
2022-09-16T16:51:54.977Z,12.15
2022-09-16T16:54:23.090Z,12.65
2022-09-16T16:56:51.282Z,12.95
2022-09-16T16:59:19.341Z,12.65
2022-09-16T17:01:49.073Z,12.75
2022-09-16T17:04:17.104Z,13.82
2022-09-16T17:06:46.651Z,12.40
2022-09-16T17:09:16.064Z,12.85
2022-09-16T17:11:52.090Z,12.20
2022-09-16T17:14:19.954Z,12.35
2022-09-16T17:16:48.377Z,13.57
2022-09-16T17:19:17.287Z,13.07
2022-09-16T17:21:47.019Z,12.30
2022-09-16T17:25:06.798Z,13.90
2022-09-16T17:27:34.525Z,13.85
2022-09-16T17:30:02.238Z,12.98
2022-09-16T17:32:29.914Z,13.23
2022-09-16T17:34:57.568Z,13.57
2022-09-16T17:37:26.580Z,13.02
2022-09-16T17:39:54.288Z,13.20
2022-09-16T17:42:22.008Z,14.00
2022-09-16T17:44:49.683Z,12.23
2022-09-16T17:47:17.318Z,12.43
2022-09-16T17:49:44.944Z,12.35
2022-09-16T17:52:12.655Z,12.73
2022-09-16T17:54:42.048Z,13.35
2022-09-16T17:57:09.843Z,12.70
2022-09-16T17:59:37.503Z,13.02
2022-09-16T18:02:05.262Z,13.50
2022-09-16T18:04:32.964Z,14.30
2022-09-16T18:07:00.665Z,14.50
2022-09-16T18:09:28.326Z,13.18
2022-09-16T18:11:58.412Z,13.38
2022-09-16T18:14:26.132Z,13.90
2022-09-16T18:16:53.850Z,13.52
2022-09-16T18:19:21.601Z,12.77
2022-09-16T18:21:49.242Z,13.77
2022-09-16T18:24:17.047Z,13.07
2022-09-16T18:26:45.071Z,13.23
2022-09-16T18:29:14.803Z,12.32
2022-09-16T18:31:45.305Z,12.38
2022-09-16T18:34:13.606Z,13.48
2022-09-16T18:36:41.701Z,13.15
2022-09-16T18:39:14.249Z,12.82
2022-09-16T18:41:43.283Z,12.88
2022-09-16T18:44:15.857Z,12.77
2022-09-16T18:46:44.132Z,13.80
2022-09-16T18:49:13.646Z,12.98
2022-09-16T18:51:42.985Z,13.68
2022-09-16T18:54:15.162Z,14.93
2022-09-16T18:56:43.398Z,13.85
2022-09-16T18:59:21.493Z,13.98
2022-09-16T19:01:50.640Z,13.27
2022-09-16T19:04:19.802Z,13.02
2022-09-16T19:06:48.982Z,12.73
2022-09-16T19:09:18.198Z,13.75
2022-09-16T19:11:45.972Z,13.57
2022-09-16T19:14:15.906Z,14.00
2022-09-16T19:16:44.962Z,13.60
2022-09-16T19:19:14.462Z,14.00
2022-09-16T19:21:43.023Z,13.93
2022-09-16T19:24:14.049Z,14.48
2022-09-16T19:26:42.423Z,13.25
2022-09-16T19:29:10.813Z,13.38
2022-09-16T19:31:40.915Z,14.30
2022-09-16T19:34:08.573Z,13.52
2022-09-16T19:36:36.783Z,13.38
2022-09-16T19:39:04.839Z,13.55
2022-09-16T19:41:33.930Z,13.82
2022-09-16T19:44:02.831Z,13.20
2022-09-16T19:46:33.705Z,12.93
2022-09-16T19:49:03.050Z,13.55
2022-09-16T19:51:31.196Z,13.05
2022-09-16T19:54:00.687Z,12.90
2022-09-16T19:56:29.771Z,12.82
2022-09-16T19:58:57.826Z,13.27
2022-09-16T20:01:27.135Z,13.18
2022-09-16T20:03:55.441Z,12.98
2022-09-16T20:06:26.132Z,12.60
2022-09-16T20:08:55.523Z,13.48
2022-09-16T20:11:24.679Z,12.35
2022-09-16T20:13:54.304Z,13.15
2022-09-16T20:16:23.665Z,13.00
2022-09-16T20:18:51.963Z,13.55
2022-09-16T20:21:22.462Z,13.52
2022-09-16T20:23:52.014Z,13.43
2022-09-16T20:26:20.701Z,13.68
2022-09-16T20:28:50.909Z,12.93
2022-09-16T20:31:20.529Z,13.93
2022-09-16T20:33:48.346Z,14.05
2022-09-16T20:36:18.083Z,13.07
2022-09-16T20:38:46.036Z,13.00
2022-09-16T20:41:17.703Z,13.40
2022-09-16T20:43:46.298Z,13.23
2022-09-16T20:46:16.342Z,13.02
2022-09-16T20:48:44.361Z,12.65
2022-09-16T20:51:13.579Z,12.18
2022-09-16T20:53:41.880Z,13.00
2022-09-16T20:56:12.365Z,12.55
2022-09-16T20:58:41.660Z,12.77
2022-09-16T21:01:12.586Z,13.60
2022-09-16T21:03:40.798Z,13.88
2022-09-16T21:06:10.514Z,12.50
2022-09-16T21:08:38.110Z,13.75
2022-09-16T21:11:07.621Z,12.90
2022-09-16T21:13:35.892Z,13.52
2022-09-16T21:16:04.977Z,11.85
2022-09-16T21:18:32.582Z,12.07
2022-09-16T21:21:01.546Z,14.27
2022-09-16T21:23:29.844Z,13.25
2022-09-16T21:26:03.197Z,12.65
2022-09-16T21:28:31.144Z,12.50
2022-09-16T21:31:01.345Z,12.63
2022-09-16T21:33:30.910Z,12.15
2022-09-16T21:35:58.597Z,12.32
2022-09-16T21:38:28.109Z,12.55
2022-09-16T21:40:57.004Z,12.75
2022-09-16T21:43:25.862Z,11.68
2022-09-16T21:45:53.670Z,12.35
2022-09-16T21:48:21.371Z,11.68
2022-09-16T21:50:50.693Z,13.55
2022-09-16T21:53:18.283Z,11.65
2022-09-16T21:55:45.865Z,12.45
2022-09-16T21:58:13.736Z,11.32
2022-09-16T22:00:41.352Z,11.70
2022-09-16T22:03:09.197Z,12.18
2022-09-16T22:05:37.057Z,11.70
2022-09-16T22:08:06.016Z,11.57
2022-09-16T22:10:33.582Z,12.65
2022-09-16T22:13:01.204Z,12.60
2022-09-16T22:15:28.772Z,12.73
2022-09-16T22:17:56.419Z,12.20
2022-09-16T22:20:24.699Z,12.80
2022-09-16T22:22:52.419Z,12.43
2022-09-16T22:25:21.370Z,12.18
2022-09-16T22:27:48.944Z,12.70
2022-09-16T22:30:16.643Z,11.95
2022-09-16T22:32:44.256Z,12.95
2022-09-16T22:35:11.935Z,12.25
2022-09-16T22:37:39.575Z,12.25
2022-09-16T22:40:08.146Z,12.18
2022-09-16T22:42:37.216Z,12.15
2022-09-16T22:45:05.297Z,12.00
2022-09-16T22:47:32.891Z,12.68
2022-09-16T22:50:00.517Z,12.23
2022-09-16T22:52:29.844Z,11.90
2022-09-16T22:54:57.502Z,11.57
2022-09-16T22:57:25.275Z,11.82
2022-09-16T22:59:54.260Z,11.80
2022-09-16T23:02:22.027Z,11.73
2022-09-16T23:04:49.707Z,11.07
2022-09-16T23:07:17.336Z,11.18
2022-09-16T23:09:45.051Z,11.57
2022-09-16T23:12:17.010Z,11.45
2022-09-16T23:14:44.773Z,10.60
2022-09-16T23:17:13.820Z,11.30
2022-09-16T23:19:41.416Z,10.63
2022-09-16T23:22:09.007Z,11.13
2022-09-16T23:24:36.601Z,11.25
2022-09-16T23:27:04.679Z,11.07
2022-09-16T23:29:32.256Z,11.13
2022-09-16T23:32:02.659Z,11.57
2022-09-16T23:34:31.606Z,11.52
2022-09-16T23:36:59.207Z,12.80
2022-09-16T23:39:26.987Z,12.30
2022-09-16T23:41:54.564Z,11.35
2022-09-16T23:44:22.526Z,13.15
2022-09-16T23:46:50.198Z,11.25
2022-09-16T23:49:20.259Z,11.25
2022-09-16T23:51:49.305Z,11.18
2022-09-16T23:54:17.517Z,11.35
2022-09-16T23:56:45.139Z,11.02
2022-09-16T23:59:12.809Z,11.98
